Airfield :







YOU CAN JOIN US ON...

 
LOGIN :

Register | Disclaimer

   EN    FR    IT 

 









Legend :    VFR   Marginal VFR   IFR   Intensive IFR   Very Intensive IFR
Visi :
Ceiling :
>= 8 km
>= 3000ft
5 to 8 km
1000 to 3000 ft
1500m to 5 km
500 to 1000 ft
800 to 1500m
200 to 500 ft
< 800m
< 200 ft
Symbols :   Thunderstorms  Fog  Heavy snow  Heavy precipitations  Wind > 20 kt






- Airport Elevation : 333 ft


KWVL - Waterville Robert Lafleur

CURRENT METAR :
  • 021808Z AUTO 36012G19KT 10SM -RA OVC008 06/05 A2949 RMK AO2 CIG 007V012 P0001

EXPIRED METARs :
  • 021756Z AUTO 36014G18KT 10SM -RA OVC010 06/04 A2949 RMK AO2 CIG 007V013 SLP015 P0005 60022 T00560044 10056 20028 56012
  • 021735Z AUTO 35013G18KT 10SM -RA OVC008 05/04 A2949 RMK AO2 CIG 007V014 P0003
  • 021656Z AUTO 36012KT 10SM -RA OVC010 04/04 A2951 RMK AO2 SLP022 P0005 T00440039
  • 021632Z AUTO 36012G19KT 10SM -RA BKN010 BKN016 OVC021 04/04 A2952 RMK AO2 CIG 007V012 P0003
  • 021618Z AUTO 36012KT 9SM RA SCT009 OVC019 04/03 A2952 RMK AO2 P0002
  • 021556Z AUTO 36013G18KT 10SM -RA BKN010 OVC014 04/03 A2952 RMK AO2 CIG 008V012 SLP027 P0005 T00440033

TAF N/A



MET'MAP, your aeronautical weather chart ! - Copyright ORBIFLY December 2007 - Disclaimer

ORBIFLY MET'MAP TEAM :

Programming & Development : Alexandra Zaïnal
Concept & original design : Baudouin d'Aumeries
Assistance for programming : Marc-Olivier Méhu
Technical & hardware support : Manuel Goepfert

Contact : metmap@orbifly.com




SOURCES & CREDITS :

   NOAA